Time;durP1;ratioP1;P1;durP2;ratioP2;P2;SDS_P1;SDS_P2;PMS_P1;PMS_P2;Temp;Humidity;BMP_temperature;BMP_pressure;BME280_temperature;BME280_humidity;BME280_pressure;Samples;Min_cycle;Max_cycle;Signal;HPM_P1;HPM_P2
2023/04/26 00:00:17;;;;;;;12.35;7.70;;;;;;;4.12;72.66;98209.81;5032858;28;20021;-75
2023/04/26 00:02:42;;;;;;;10.57;8.95;;;;;;;3.94;74.34;98206.09;5032487;28;20041;-74
2023/04/26 00:05:08;;;;;;;9.05;8.15;;;;;;;4.04;72.98;98202.00;5016193;28;20030;-75
2023/04/26 00:07:34;;;;;;;11.73;9.27;;;;;;;4.05;72.99;98211.63;5016394;28;20045;-75
2023/04/26 00:10:00;;;;;;;8.95;7.72;;;;;;;4.11;72.12;98212.66;5024966;28;20022;-75
2023/04/26 00:12:25;;;;;;;10.30;9.35;;;;;;;4.10;73.29;98219.84;5026243;28;20657;-74
2023/04/26 00:14:50;;;;;;;9.23;8.38;;;;;;;4.18;72.98;98216.97;5020555;28;20057;-75
2023/04/26 00:17:16;;;;;;;13.02;10.93;;;;;;;4.24;74.24;98211.84;5019232;28;20045;-74
2023/04/26 00:19:41;;;;;;;11.43;10.20;;;;;;;4.34;72.69;98217.63;5024979;28;20111;-75
2023/04/26 00:22:07;;;;;;;9.00;8.10;;;;;;;4.25;73.29;98224.16;5027053;28;20487;-75
2023/04/26 00:24:33;;;;;;;10.50;9.43;;;;;;;4.12;73.36;98230.28;5036762;28;20108;-75
2023/04/26 00:26:59;;;;;;;9.88;8.48;;;;;;;3.92;73.65;98230.25;4986261;28;20280;-75
2023/04/26 00:29:24;;;;;;;11.07;8.50;;;;;;;4.22;72.88;98226.19;5008151;28;20026;-75
2023/04/26 00:31:50;;;;;;;11.18;9.98;;;;;;;4.47;72.66;98228.28;5010366;28;20045;-75
2023/04/26 00:34:16;;;;;;;10.45;9.40;;;;;;;4.73;72.93;98230.94;5024553;28;20026;-74
2023/04/26 00:36:41;;;;;;;12.35;9.88;;;;;;;4.79;72.42;98216.75;5009236;28;20414;-73
2023/04/26 00:39:08;;;;;;;11.20;9.00;;;;;;;4.91;71.91;98215.09;5019553;28;20017;-73
2023/04/26 00:41:33;;;;;;;10.40;9.00;;;;;;;4.84;71.72;98225.78;5015580;28;20136;-74
2023/04/26 00:43:59;;;;;;;9.90;8.90;;;;;;;4.93;72.25;98207.72;5031863;28;20109;-73
2023/04/26 00:46:25;;;;;;;11.57;10.50;;;;;;;4.89;73.03;98228.66;5001674;28;20057;-74
2023/04/26 00:48:50;;;;;;;9.68;8.65;;;;;;;4.46;72.30;98226.63;5019501;28;20022;-74
2023/04/26 00:51:15;;;;;;;13.38;12.02;;;;;;;4.26;74.86;98228.47;5012490;28;20571;-74
2023/04/26 00:53:41;;;;;;;16.67;15.15;;;;;;;4.15;75.90;98232.56;5015256;28;20053;-74
2023/04/26 00:56:08;;;;;;;16.63;15.32;;;;;;;4.16;75.87;98229.69;5016531;28;20044;-74
2023/04/26 00:58:34;;;;;;;19.48;18.08;;;;;;;4.40;75.65;98230.13;5031845;28;20226;-74
2023/04/26 01:00:59;;;;;;;19.75;18.27;;;;;;;4.61;75.01;98219.25;5002620;28;20508;-74
2023/04/26 01:03:25;;;;;;;19.35;17.65;;;;;;;4.68;73.96;98220.06;5011559;28;20037;-73
2023/04/26 01:05:51;;;;;;;16.63;15.18;;;;;;;4.66;74.42;98222.13;5012151;28;20041;-74
2023/04/26 01:08:19;;;;;;;18.20;16.80;;;;;;;4.02;77.10;98230.69;5031596;28;20037;-75
2023/04/26 01:10:46;;;;;;;14.88;13.73;;;;;;;4.47;74.39;98222.94;5018068;28;20037;-75
2023/04/26 01:13:11;;;;;;;15.30;13.48;;;;;;;4.37;74.16;98222.50;5024359;28;20049;-74
2023/04/26 01:15:42;;;;;;;17.10;15.80;;;;;;;3.99;75.46;98231.06;5024965;28;20037;-74
2023/04/26 01:18:10;;;;;;;17.92;16.58;;;;;;;3.85;76.79;98239.25;5019620;28;20491;-75
2023/04/26 01:20:35;;;;;;;24.35;22.42;;;;;;;4.16;76.62;98237.69;5002006;28;20037;-75
2023/04/26 01:23:01;;;;;;;23.65;22.17;;;;;;;3.99;77.04;98236.41;5023344;28;20049;-74
2023/04/26 01:25:26;;;;;;;27.77;25.98;;;;;;;4.07;76.93;98228.25;5008338;28;20480;-75
2023/04/26 01:27:52;;;;;;;27.67;25.98;;;;;;;3.85;77.63;98236.59;5003107;28;20029;-75
2023/04/26 01:30:18;;;;;;;29.08;27.25;;;;;;;3.77;77.47;98234.94;5001587;28;20024;-75
2023/04/26 01:32:43;;;;;;;30.23;28.52;;;;;;;3.88;77.25;98234.34;5023163;28;20554;-74
2023/04/26 01:35:09;;;;;;;32.70;30.90;;;;;;;3.64;78.65;98245.50;5009373;28;20506;-75
2023/04/26 01:37:34;;;;;;;32.47;30.58;;;;;;;3.86;77.31;98246.22;5023194;28;20036;-75
2023/04/26 01:40:00;;;;;;;33.80;31.67;;;;;;;3.88;77.58;98247.66;5007865;28;20108;-74
2023/04/26 01:42:25;;;;;;;30.52;28.58;;;;;;;4.08;77.03;98248.50;5018958;28;20056;-75
2023/04/26 01:44:51;;;;;;;30.52;28.73;;;;;;;3.97;76.74;98248.28;5017723;28;20026;-75
2023/04/26 01:47:16;;;;;;;35.97;33.70;;;;;;;3.98;76.82;98249.94;5006688;28;20037;-75
2023/04/26 01:49:41;;;;;;;33.75;31.95;;;;;;;4.05;77.06;98248.94;5023940;28;20022;-75
2023/04/26 01:52:07;;;;;;;32.72;30.63;;;;;;;4.18;76.77;98246.28;5011022;28;20034;-75
2023/04/26 01:54:32;;;;;;;31.73;29.88;;;;;;;4.08;76.58;98245.06;5041318;28;20029;-74
2023/04/26 01:56:58;;;;;;;29.42;27.73;;;;;;;4.00;76.82;98255.88;5030744;28;20476;-74
2023/04/26 01:59:26;;;;;;;30.65;28.88;;;;;;;3.97;76.86;98249.09;5014298;28;20048;-73
2023/04/26 02:01:51;;;;;;;30.80;28.60;;;;;;;3.99;77.05;98247.06;5031846;28;20437;-73
2023/04/26 02:04:17;;;;;;;30.30;28.48;;;;;;;4.13;77.48;98250.59;5017325;28;20091;-73
2023/04/26 02:06:42;;;;;;;38.92;36.42;;;;;;;4.05;78.05;98251.59;5046987;28;20030;-73
2023/04/26 02:09:08;;;;;;;31.13;29.33;;;;;;;4.19;77.22;98253.28;5014070;28;20024;-74
2023/04/26 02:11:34;;;;;;;25.90;24.25;;;;;;;4.14;76.08;98245.06;5007786;28;20030;-73
2023/04/26 02:13:59;;;;;;;25.20;23.60;;;;;;;4.31;76.14;98247.34;5023983;28;20029;-74
2023/04/26 02:16:25;;;;;;;22.90;21.30;;;;;;;4.47;75.86;98238.94;5017189;28;20045;-73
2023/04/26 02:18:52;;;;;;;19.67;18.02;;;;;;;4.42;75.18;98231.56;5047040;28;20025;-73
2023/04/26 02:21:17;;;;;;;18.48;17.10;;;;;;;3.96;77.71;98244.81;5017452;28;20038;-73
2023/04/26 02:23:43;;;;;;;22.65;20.92;;;;;;;3.99;76.42;98241.72;5017240;28;20033;-73
2023/04/26 02:26:08;;;;;;;30.33;28.55;;;;;;;3.73;78.33;98235.53;5007438;28;20228;-73
2023/04/26 02:28:34;;;;;;;34.85;32.78;;;;;;;3.87;77.83;98238.03;5014027;28;20060;-73
2023/04/26 02:31:01;;;;;;;28.50;26.88;;;;;;;3.95;76.48;98243.16;5024026;28;20033;-73
2023/04/26 02:33:28;;;;;;;24.05;22.45;;;;;;;4.02;76.60;98236.00;4991432;28;20479;-73
2023/04/26 02:35:55;;;;;;;24.23;22.70;;;;;;;3.92;76.89;98227.56;5017677;28;20037;-74
2023/04/26 02:38:21;;;;;;;29.90;28.08;;;;;;;3.98;76.66;98224.13;5017165;28;20060;-74
2023/04/26 02:40:46;;;;;;;27.75;25.88;;;;;;;3.84;77.32;98229.59;5022965;28;20033;-75
2023/04/26 02:43:12;;;;;;;27.63;25.95;;;;;;;3.73;77.12;98241.69;5011177;28;20472;-75
2023/04/26 02:45:43;;;;;;;28.27;26.38;;;;;;;3.63;78.23;98235.91;4990322;28;20124;-75
2023/04/26 02:48:11;;;;;;;30.70;28.67;;;;;;;3.47;77.59;98233.59;5007498;28;20115;-75
2023/04/26 02:50:37;;;;;;;29.90;27.92;;;;;;;3.40;78.43;98240.72;5018609;28;20031;-75
2023/04/26 02:53:03;;;;;;;29.90;28.00;;;;;;;3.50;77.47;98243.84;5015245;28;20038;-75
2023/04/26 02:55:29;;;;;;;39.30;37.17;;;;;;;2.81;79.98;98235.06;5003713;28;20171;-74
2023/04/26 02:57:54;;;;;;;43.70;41.22;;;;;;;2.78;80.68;98240.75;5013636;28;20033;-74
2023/04/26 03:00:21;;;;;;;45.75;43.33;;;;;;;2.93;80.91;98238.00;5022316;28;20029;-75
2023/04/26 03:02:46;;;;;;;47.33;44.80;;;;;;;3.22;78.62;98245.75;5011659;28;20065;-74
2023/04/26 03:05:12;;;;;;;43.15;40.85;;;;;;;3.14;78.74;98245.91;5024078;28;20045;-74
2023/04/26 03:07:37;;;;;;;42.28;39.97;;;;;;;3.13;78.85;98244.25;5016682;28;20033;-74
2023/04/26 03:10:04;;;;;;;38.80;36.58;;;;;;;3.16;78.69;98251.84;5023141;28;20029;-76
2023/04/26 03:12:30;;;;;;;34.63;32.67;;;;;;;3.22;77.79;98248.41;5005935;28;20037;-76
2023/04/26 03:14:55;;;;;;;32.55;30.73;;;;;;;2.95;77.70;98243.94;4994804;28;20025;-75
2023/04/26 03:17:22;;;;;;;34.90;32.88;;;;;;;2.85;78.80;98246.13;4999495;28;20479;-76
2023/04/26 03:19:48;;;;;;;33.60;31.60;;;;;;;2.85;78.53;98256.78;4998913;28;20040;-75
2023/04/26 03:22:15;;;;;;;33.13;31.23;;;;;;;2.90;77.94;98257.81;5029665;28;20037;-75
2023/04/26 03:24:42;;;;;;;32.25;30.50;;;;;;;2.70;78.33;98249.72;5025122;28;20028;-75
2023/04/26 03:27:07;;;;;;;38.80;36.40;;;;;;;2.72;77.61;98255.66;5016525;28;20060;-75
2023/04/26 03:29:33;;;;;;;36.15;34.17;;;;;;;2.65;77.49;98257.44;5007063;28;20025;-74
2023/04/26 03:31:58;;;;;;;32.85;31.05;;;;;;;2.70;77.33;98257.69;5021579;28;20038;-75
2023/04/26 03:34:24;;;;;;;34.05;32.25;;;;;;;2.67;78.14;98254.59;5026728;28;20045;-75
2023/04/26 03:36:50;;;;;;;31.85;30.15;;;;;;;2.57;77.26;98260.22;5163620;23;20853;-75
2023/04/26 03:39:17;;;;;;;31.63;29.63;;;;;;;2.64;76.96;98255.78;5015026;28;20040;-75
2023/04/26 03:41:43;;;;;;;29.33;27.50;;;;;;;2.74;77.28;98256.28;5015585;28;20033;-74
2023/04/26 03:44:11;;;;;;;31.83;30.17;;;;;;;2.63;76.93;98267.47;5015060;28;20121;-75
2023/04/26 03:46:37;;;;;;;28.42;26.83;;;;;;;2.46;78.01;98258.09;4995021;28;20041;-74
2023/04/26 03:49:03;;;;;;;30.08;28.33;;;;;;;2.45;77.42;98275.03;4978581;28;20022;-74
2023/04/26 03:51:28;;;;;;;31.27;29.40;;;;;;;2.34;77.39;98264.09;4994485;28;20049;-75
2023/04/26 03:53:54;;;;;;;33.60;31.60;;;;;;;2.38;77.54;98276.81;4978494;28;20026;-74
2023/04/26 03:56:20;;;;;;;31.55;29.92;;;;;;;2.33;78.25;98275.78;5027803;28;20092;-74
2023/04/26 03:58:46;;;;;;;32.00;30.08;;;;;;;2.38;77.59;98270.72;5011210;28;20378;-74
2023/04/26 04:01:11;;;;;;;35.33;33.45;;;;;;;2.19;77.71;98266.84;4999284;28;20040;-75
2023/04/26 04:03:37;;;;;;;35.88;34.03;;;;;;;2.27;78.18;98271.19;4994698;28;20037;-75
2023/04/26 04:06:02;;;;;;;33.60;31.90;;;;;;;2.26;77.80;98273.06;4994170;28;20026;-75
2023/04/26 04:08:28;;;;;;;32.70;30.88;;;;;;;2.29;77.68;98275.31;4978349;28;20361;-75
2023/04/26 04:10:53;;;;;;;32.50;30.70;;;;;;;2.10;78.61;98281.28;4983276;28;20034;-76
2023/04/26 04:13:18;;;;;;;34.75;33.03;;;;;;;2.06;78.50;98272.00;4993006;28;20141;-75
2023/04/26 04:15:44;;;;;;;33.60;31.90;;;;;;;2.04;78.01;98279.34;4993544;28;20038;-74
2023/04/26 04:18:10;;;;;;;40.38;38.10;;;;;;;1.65;79.89;98284.22;4994182;28;20022;-74
2023/04/26 04:20:35;;;;;;;50.33;47.13;;;;;;;1.61;80.16;98283.75;4977451;28;20034;-75
2023/04/26 04:23:03;;;;;;;66.13;61.20;;;;;;;1.88;80.28;98282.25;4992982;28;20076;-75
2023/04/26 04:25:29;;;;;;;51.17;48.17;;;;;;;2.08;78.76;98280.63;4993225;28;20030;-74
2023/04/26 04:27:57;;;;;;;45.25;42.53;;;;;;;2.00;78.70;98278.09;4977539;28;20109;-74
2023/04/26 04:30:23;;;;;;;45.88;43.47;;;;;;;2.06;79.11;98287.94;4976695;28;20026;-74
2023/04/26 04:32:48;;;;;;;46.00;43.45;;;;;;;1.96;79.08;98296.22;5013709;28;20117;-74
2023/04/26 04:35:15;;;;;;;49.92;47.03;;;;;;;1.94;79.07;98292.09;5009021;28;20093;-74
2023/04/26 04:37:40;;;;;;;56.47;52.95;;;;;;;1.74;79.16;98305.16;4992678;28;20026;-72
2023/04/26 04:40:09;;;;;;;76.95;72.32;;;;;;;1.52;81.83;98300.78;4992675;28;20451;-73
2023/04/26 04:42:35;;;;;;;62.33;58.83;;;;;;;1.89;80.18;98295.31;4981119;28;20033;-75
2023/04/26 04:45:04;;;;;;;57.75;54.63;;;;;;;1.91;80.43;98300.47;4976568;28;20035;-74
2023/04/26 04:47:30;;;;;;;51.92;49.22;;;;;;;2.14;79.10;98309.09;4976615;28;20082;-74
2023/04/26 04:49:56;;;;;;;44.00;41.25;;;;;;;2.28;78.67;98302.91;4981032;28;20559;-74
2023/04/26 04:52:21;;;;;;;46.22;43.58;;;;;;;2.14;79.35;98306.44;4976390;28;20022;-74
2023/04/26 04:54:47;;;;;;;48.80;46.05;;;;;;;2.09;79.71;98311.50;4996215;28;20168;-75
2023/04/26 04:57:15;;;;;;;45.95;43.28;;;;;;;2.33;78.64;98303.16;5015674;28;20392;-74
2023/04/26 04:59:42;;;;;;;52.00;49.10;;;;;;;2.14;80.22;98311.75;4992449;28;20376;-74
2023/04/26 05:02:09;;;;;;;48.67;46.17;;;;;;;2.30;78.88;98311.50;4992427;28;20410;-75
2023/04/26 05:04:34;;;;;;;48.80;46.22;;;;;;;2.43;78.50;98319.59;4992244;28;20030;-73
2023/04/26 05:07:00;;;;;;;45.83;43.03;;;;;;;2.49;78.24;98310.88;4992363;28;20023;-75
2023/04/26 05:09:26;;;;;;;42.67;40.22;;;;;;;2.65;77.98;98321.25;4992302;28;20026;-75
2023/04/26 05:11:51;;;;;;;44.63;41.83;;;;;;;2.65;78.36;98321.25;4992133;28;20026;-73
2023/04/26 05:14:17;;;;;;;41.67;39.17;;;;;;;2.78;77.35;98326.66;4991902;28;20496;-74
2023/04/26 05:16:42;;;;;;;45.95;43.53;;;;;;;2.72;78.24;98322.13;5008442;28;20101;-75
2023/04/26 05:19:08;;;;;;;47.35;44.67;;;;;;;2.78;78.97;98329.31;4995419;28;20039;-75
2023/04/26 05:21:33;;;;;;;45.45;42.90;;;;;;;2.76;78.05;98328.69;4991966;28;20042;-74
2023/04/26 05:23:59;;;;;;;49.25;46.17;;;;;;;2.86;77.15;98332.88;4991053;28;20121;-75
2023/04/26 05:26:25;;;;;;;56.97;52.95;;;;;;;2.89;78.15;98340.47;4991941;28;20057;-75
2023/04/26 05:28:57;;;;;;;53.53;49.85;;;;;;;2.85;78.32;98341.88;5008210;28;20034;-75
2023/04/26 05:31:28;;;;;;;48.28;45.22;;;;;;;2.86;78.07;98327.53;5008224;28;20077;-74
2023/04/26 05:34:00;;;;;;;47.47;44.67;;;;;;;2.63;78.80;98335.75;4976143;28;20046;-74
2023/04/26 05:36:28;;;;;;;42.20;39.70;;;;;;;3.17;76.77;98341.31;5000985;28;20088;-74
2023/04/26 05:38:53;;;;;;;45.75;42.70;;;;;;;3.17;76.25;98334.16;5005505;28;20039;-74
2023/04/26 05:41:19;;;;;;;43.47;40.70;;;;;;;3.36;76.53;98340.63;4988828;28;20045;-75
2023/04/26 05:43:46;;;;;;;46.28;43.10;;;;;;;3.41;77.15;98348.81;4992987;28;20026;-75
2023/04/26 05:46:12;;;;;;;38.30;35.60;;;;;;;3.63;75.50;98345.06;4991524;28;20038;-75
2023/04/26 05:48:39;;;;;;;32.88;30.58;;;;;;;3.86;74.92;98348.25;4991458;28;20069;-74
2023/04/26 05:51:05;;;;;;;26.13;24.40;;;;;;;3.91;75.61;98353.00;4975404;28;20069;-75
2023/04/26 05:53:30;;;;;;;26.50;24.42;;;;;;;3.83;74.94;98359.31;4978571;28;20034;-72
2023/04/26 05:55:56;;;;;;;18.65;17.25;;;;;;;4.13;73.92;98359.84;4992449;28;20037;-72
2023/04/26 05:58:21;;;;;;;16.77;15.30;;;;;;;4.30;72.92;98365.63;5009641;28;20085;-74
2023/04/26 06:00:48;;;;;;;17.55;16.23;;;;;;;4.37;72.62;98363.81;5007767;28;20073;-74
2023/04/26 06:03:13;;;;;;;15.95;14.52;;;;;;;4.52;72.58;98359.97;4991106;28;20058;-76
2023/04/26 06:05:40;;;;;;;12.80;11.70;;;;;;;4.72;72.02;98360.00;4975011;28;20510;-75
2023/04/26 06:08:05;;;;;;;13.23;11.95;;;;;;;4.86;71.90;98365.16;4976178;28;20015;-75
2023/04/26 06:10:31;;;;;;;12.57;11.48;;;;;;;5.05;71.58;98360.84;4990874;28;20129;-75
2023/04/26 06:12:56;;;;;;;12.05;9.27;;;;;;;5.29;70.54;98357.56;4991156;28;20033;-74
2023/04/26 06:15:26;;;;;;;8.48;6.25;;;;;;;5.64;67.88;98358.13;4991795;28;20038;-74
2023/04/26 06:17:53;;;;;;;10.40;4.85;;;;;;;5.03;67.65;98370.06;4991433;28;20030;-74
2023/04/26 06:20:18;;;;;;;5.70;4.47;;;;;;;5.12;67.86;98367.00;4990803;28;20106;-75
2023/04/26 06:22:44;;;;;;;7.70;5.22;;;;;;;4.90;68.01;98362.91;4990840;28;20480;-75
2023/04/26 06:25:09;;;;;;;10.95;4.78;;;;;;;4.90;67.30;98368.25;4974711;28;20100;-74
2023/04/26 06:27:38;;;;;;;7.05;4.45;;;;;;;4.91;68.08;98361.88;4991024;28;20038;-74
2023/04/26 06:30:05;;;;;;;8.50;4.50;;;;;;;4.91;67.42;98369.88;5003918;28;20023;-74
2023/04/26 06:32:33;;;;;;;6.68;4.88;;;;;;;5.02;68.26;98361.25;4990349;28;20085;-75
2023/04/26 06:34:58;;;;;;;6.60;5.13;;;;;;;4.82;69.17;98365.75;4975807;28;20441;-75
2023/04/26 06:37:24;;;;;;;8.93;4.95;;;;;;;5.16;67.81;98360.22;4978973;28;20030;-75
2023/04/26 06:39:50;;;;;;;7.43;4.95;;;;;;;4.84;70.22;98361.03;5020841;28;20022;-75
2023/04/26 06:42:16;;;;;;;9.80;6.57;;;;;;;5.16;68.95;98362.09;5011230;28;20519;-75
2023/04/26 06:44:53;;;;;;;10.10;6.45;;;;;;;5.35;69.02;98364.72;4994417;28;20523;-74
2023/04/26 06:47:19;;;;;;;9.27;6.82;;;;;;;5.58;68.80;98367.78;5011010;28;20042;-75
2023/04/26 06:49:44;;;;;;;10.50;5.65;;;;;;;5.27;69.13;98364.97;5010992;28;20113;-74
2023/04/26 06:52:09;;;;;;;6.70;6.00;;;;;;;5.30;69.01;98364.53;4996019;28;20047;-75
2023/04/26 06:54:35;;;;;;;9.27;5.97;;;;;;;5.56;68.52;98363.66;4994493;28;20046;-75
2023/04/26 06:57:01;;;;;;;9.73;5.32;;;;;;;5.64;68.48;98362.63;4994692;28;20038;-75
2023/04/26 06:59:26;;;;;;;12.60;5.20;;;;;;;5.60;66.98;98357.69;4994616;28;20030;-75
2023/04/26 07:01:51;;;;;;;10.98;4.13;;;;;;;5.30;65.09;98364.53;4978600;28;20030;-75
2023/04/26 07:04:19;;;;;;;9.35;3.95;;;;;;;5.60;64.72;98359.56;4983874;28;20109;-75
2023/04/26 07:06:44;;;;;;;9.75;4.82;;;;;;;5.81;66.02;98358.50;4994173;28;20043;-75
2023/04/26 07:09:11;;;;;;;9.18;4.15;;;;;;;6.07;65.04;98366.44;4994506;28;20354;-75
2023/04/26 07:11:36;;;;;;;8.60;4.50;;;;;;;5.91;63.32;98372.25;4978144;28;20027;-75
2023/04/26 07:14:05;;;;;;;7.97;4.80;;;;;;;6.19;63.36;98368.25;4977967;28;20026;-75
2023/04/26 07:16:31;;;;;;;10.75;6.55;;;;;;;6.56;63.15;98363.94;4994312;28;20041;-76
2023/04/26 07:18:59;;;;;;;8.02;3.90;;;;;;;6.52;63.30;98364.59;5010596;28;20022;-75
2023/04/26 07:21:28;;;;;;;6.50;3.30;;;;;;;6.13;62.71;98370.94;4994754;28;20042;-75
2023/04/26 07:23:56;;;;;;;10.00;3.78;;;;;;;6.24;62.03;98373.78;4994211;28;20053;-75
2023/04/26 07:26:23;;;;;;;7.60;3.75;;;;;;;6.22;61.41;98370.50;4993017;28;20404;-75
2023/04/26 07:28:50;;;;;;;9.63;3.83;;;;;;;6.40;61.31;98367.13;4993007;28;20071;-75
2023/04/26 07:31:16;;;;;;;7.75;3.42;;;;;;;6.44;61.58;98362.16;4994004;28;20096;-75
2023/04/26 07:33:42;;;;;;;7.07;3.50;;;;;;;6.29;61.95;98370.47;4977750;28;20121;-75
2023/04/26 07:36:07;;;;;;;9.05;3.35;;;;;;;6.03;58.88;98368.72;4994029;28;20042;-76
2023/04/26 07:38:32;;;;;;;6.55;3.55;;;;;;;6.12;59.97;98371.97;4993906;28;20030;-75
2023/04/26 07:40:59;;;;;;;6.00;3.03;;;;;;;6.12;60.13;98369.28;4993854;28;20080;-76
2023/04/26 07:43:27;;;;;;;7.03;3.55;;;;;;;6.06;58.67;98370.16;4993774;28;20109;-76
2023/04/26 07:45:52;;;;;;;7.32;2.67;;;;;;;6.72;57.84;98366.09;4993716;28;20156;-75
2023/04/26 07:48:18;;;;;;;5.68;3.53;;;;;;;6.75;58.78;98371.03;4993100;28;20496;-75
2023/04/26 07:50:43;;;;;;;6.25;3.15;;;;;;;6.71;56.67;98369.00;4977533;28;20040;-75
2023/04/26 07:53:09;;;;;;;4.85;3.15;;;;;;;6.87;56.67;98361.28;4993540;28;20494;-75
2023/04/26 07:55:36;;;;;;;8.57;3.50;;;;;;;7.14;56.36;98353.84;4993589;28;20034;-75
2023/04/26 07:58:01;;;;;;;7.07;3.65;;;;;;;6.86;55.74;98362.31;4993750;28;20022;-75
2023/04/26 08:00:27;;;;;;;7.25;3.53;;;;;;;7.77;56.30;98365.22;4993449;28;20045;-75
2023/04/26 08:02:53;;;;;;;5.93;3.70;;;;;;;6.88;57.53;98370.94;4993435;28;20026;-75
2023/04/26 08:05:18;;;;;;;6.75;3.17;;;;;;;7.30;56.65;98361.34;4993438;28;20061;-75
2023/04/26 08:07:43;;;;;;;6.85;3.17;;;;;;;6.87;57.16;98363.94;4993366;28;20049;-75
2023/04/26 08:10:09;;;;;;;5.57;2.50;;;;;;;6.51;58.35;98373.66;4977132;28;20038;-75
2023/04/26 08:12:36;;;;;;;5.93;2.88;;;;;;;6.68;60.83;98380.94;4993421;28;20365;-75
2023/04/26 08:15:03;;;;;;;5.35;3.03;;;;;;;6.66;56.91;98376.84;4993046;28;20116;-75
2023/04/26 08:17:29;;;;;;;7.50;3.13;;;;;;;6.81;56.90;98375.50;4993337;28;20116;-75
2023/04/26 08:19:54;;;;;;;5.50;3.22;;;;;;;6.80;59.07;98384.59;4993236;28;20077;-75
2023/04/26 08:22:20;;;;;;;7.22;3.42;;;;;;;6.91;57.37;98370.50;4960794;28;20108;-75
2023/04/26 08:24:49;;;;;;;8.50;4.00;;;;;;;6.95;56.09;98387.75;4976784;28;20682;-75
2023/04/26 08:27:16;;;;;;;7.13;3.53;;;;;;;7.57;56.25;98378.00;4993079;28;20150;-75
2023/04/26 08:29:41;;;;;;;6.63;3.30;;;;;;;8.01;56.37;98368.88;4994258;28;20045;-75
2023/04/26 08:32:07;;;;;;;7.20;3.63;;;;;;;8.09;53.59;98373.94;4993008;28;20018;-75
2023/04/26 08:34:32;;;;;;;5.47;2.80;;;;;;;7.99;54.13;98369.09;4992786;28;20445;-76
2023/04/26 08:36:58;;;;;;;6.00;2.55;;;;;;;7.87;51.37;98364.69;5008983;28;20044;-75
2023/04/26 08:39:23;;;;;;;3.05;2.28;;;;;;;7.42;52.16;98374.84;5009150;28;20381;-76
2023/04/26 08:41:53;;;;;;;5.40;2.80;;;;;;;7.21;54.33;98375.25;4995983;28;20121;-76
2023/04/26 08:44:25;;;;;;;5.78;3.08;;;;;;;6.80;57.14;98373.88;5008730;28;20044;-75
2023/04/26 08:47:06;;;;;;;9.10;3.13;;;;;;;6.72;57.62;98374.13;4993845;28;20045;-75
2023/04/26 08:49:41;;;;;;;5.25;2.88;;;;;;;6.54;58.29;98384.72;4992637;28;20400;-75
2023/04/26 08:52:09;;;;;;;6.55;2.95;;;;;;;6.62;58.26;98381.00;4992697;28;20066;-76
2023/04/26 08:54:35;;;;;;;6.57;2.70;;;;;;;6.85;57.39;98376.75;4993635;28;20096;-76
2023/04/26 08:57:01;;;;;;;8.35;3.05;;;;;;;6.93;56.94;98379.13;4992494;28;20034;-75
2023/04/26 08:59:29;;;;;;;7.35;2.70;;;;;;;6.93;55.81;98368.44;4991393;28;20049;-75
2023/04/26 09:01:56;;;;;;;5.97;2.65;;;;;;;7.35;53.08;98366.06;4992705;28;20042;-75
2023/04/26 09:04:21;;;;;;;4.25;2.33;;;;;;;8.01;52.04;98366.19;4992037;28;20133;-75
2023/04/26 09:06:48;;;;;;;3.58;1.88;;;;;;;7.78;48.11;98369.53;4993490;28;20062;-75
2023/04/26 09:09:18;;;;;;;3.58;2.13;;;;;;;8.81;47.96;98362.28;4992191;28;20022;-75
2023/04/26 09:11:52;;;;;;;3.78;1.83;;;;;;;9.20;44.67;98353.63;4992374;28;20041;-76
2023/04/26 09:14:18;;;;;;;3.28;2.10;;;;;;;8.86;45.68;98351.69;4991980;28;20049;-76
2023/04/26 09:16:43;;;;;;;5.55;2.28;;;;;;;8.34;44.50;98359.44;4992116;28;20026;-75
2023/04/26 09:19:09;;;;;;;3.67;1.98;;;;;;;7.93;49.24;98355.78;4976047;28;20050;-75
2023/04/26 09:21:43;;;;;;;4.20;2.40;;;;;;;8.11;48.02;98366.50;5008580;28;20029;-75
2023/04/26 09:24:08;;;;;;;4.57;2.10;;;;;;;7.57;47.27;98354.72;4994988;28;20057;-75
2023/04/26 09:26:33;;;;;;;5.45;2.03;;;;;;;7.73;47.09;98345.25;5001352;28;20440;-75
2023/04/26 09:29:19;;;;;;;6.50;2.40;;;;;;;7.87;47.58;98352.13;4991841;28;20038;-76
2023/04/26 09:31:46;;;;;;;3.60;1.92;;;;;;;7.67;50.21;98364.94;4992464;28;20424;-76
2023/04/26 09:34:12;;;;;;;4.75;2.13;;;;;;;7.88;46.73;98356.44;4978660;28;20037;-75
2023/04/26 09:36:57;;;;;;;4.47;2.28;;;;;;;8.38;47.52;98362.47;4991711;28;20031;-74
2023/04/26 09:39:32;;;;;;;7.13;1.77;;;;;;;9.32;46.07;98342.88;4981453;28;20084;-75
2023/04/26 09:41:57;;;;;;;5.22;2.20;;;;;;;8.73;42.82;98344.63;5008127;28;20496;-75
2023/04/26 09:44:24;;;;;;;4.10;1.85;;;;;;;8.90;43.02;98355.53;4992743;28;20113;-76
2023/04/26 09:47:03;;;;;;;6.00;1.90;;;;;;;8.66;41.45;98351.16;4975378;28;20052;-76
2023/04/26 09:49:41;;;;;;;3.33;1.90;;;;;;;8.97;44.51;98351.72;4991586;28;20080;-75
2023/04/26 09:52:07;;;;;;;5.15;2.30;;;;;;;8.95;42.60;98343.06;4991649;28;20404;-76
2023/04/26 09:54:40;;;;;;;4.30;2.03;;;;;;;9.34;42.31;98340.78;4991288;28;20036;-75
2023/04/26 09:57:06;;;;;;;5.10;2.10;;;;;;;8.98;43.96;98360.59;4991484;28;20396;-77
2023/04/26 09:59:48;;;;;;;6.00;2.00;;;;;;;8.81;44.77;98351.56;4991494;28;20503;-75
2023/04/26 10:02:16;;;;;;;5.25;1.85;;;;;;;8.47;45.63;98360.31;4991651;28;20484;-76
2023/04/26 10:04:44;;;;;;;6.93;2.20;;;;;;;9.14;44.65;98346.50;4991002;28;20029;-75
2023/04/26 10:07:10;;;;;;;6.97;2.10;;;;;;;9.63;42.38;98340.69;4991104;28;20089;-75
2023/04/26 10:09:36;;;;;;;3.58;2.00;;;;;;;9.47;43.46;98338.72;4991038;28;20499;-75
2023/04/26 10:12:02;;;;;;;3.63;2.38;;;;;;;8.47;45.10;98361.09;4991376;28;20038;-76
2023/04/26 10:14:28;;;;;;;5.40;2.10;;;;;;;8.46;45.35;98361.34;4991167;28;20034;-75
2023/04/26 10:16:53;;;;;;;3.72;2.00;;;;;;;8.41;45.84;98353.97;4991223;28;20057;-75
2023/04/26 10:19:20;;;;;;;3.08;2.10;;;;;;;8.11;45.11;98358.44;5007508;28;20516;-75
2023/04/26 10:21:47;;;;;;;5.10;2.53;;;;;;;8.23;44.84;98360.16;4991460;28;20046;-75
2023/04/26 10:24:13;;;;;;;4.95;2.42;;;;;;;8.33;43.97;98355.09;4990948;28;20042;-75
2023/04/26 10:26:56;;;;;;;6.15;2.42;;;;;;;9.39;43.54;98338.22;4974920;28;20038;-75
2023/04/26 10:29:23;;;;;;;5.20;2.45;;;;;;;10.44;42.86;98337.03;4992290;28;20030;-75
2023/04/26 10:32:00;;;;;;;4.85;2.53;;;;;;;9.53;44.56;98340.44;4991137;28;20477;-75
2023/04/26 10:34:27;;;;;;;5.38;2.60;;;;;;;9.42;42.90;98346.66;5007198;28;20105;-75
2023/04/26 10:37:19;;;;;;;3.28;2.45;;;;;;;9.56;47.71;98339.97;4990858;28;20121;-75
2023/04/26 10:39:45;;;;;;;7.20;2.83;;;;;;;9.32;42.47;98346.41;4989752;28;20519;-76
2023/04/26 10:42:29;;;;;;;5.05;2.30;;;;;;;9.18;45.23;98344.16;4974736;28;20077;-75
2023/04/26 10:45:35;;;;;;;6.55;3.13;;;;;;;8.98;46.09;98336.44;4990791;28;20045;-75
2023/04/26 10:48:19;;;;;;;5.80;2.78;;;;;;;9.70;46.46;98337.88;4970333;28;20042;-76
2023/04/26 10:51:00;;;;;;;5.10;2.53;;;;;;;9.42;44.82;98338.59;4990961;28;20034;-75
2023/04/26 10:53:44;;;;;;;4.95;2.80;;;;;;;9.33;46.62;98350.72;5007000;28;20058;-76
2023/04/26 10:56:09;;;;;;;5.75;3.10;;;;;;;9.19;46.34;98338.56;5007073;28;20505;-75
2023/04/26 10:58:39;;;;;;;4.40;2.75;;;;;;;9.22;44.04;98342.66;4990801;28;20034;-76
2023/04/26 11:01:17;;;;;;;4.10;2.65;;;;;;;9.96;44.31;98329.31;4991010;28;20042;-75
2023/04/26 11:04:01;;;;;;;5.97;2.75;;;;;;;9.84;43.35;98319.59;4974507;28;20125;-76
2023/04/26 11:06:46;;;;;;;4.20;2.60;;;;;;;10.72;40.44;98323.56;4977725;28;20046;-75
2023/04/26 11:09:39;;;;;;;4.95;2.58;;;;;;;10.19;41.91;98333.84;4990829;28;20388;-75
2023/04/26 11:12:12;;;;;;;4.85;2.75;;;;;;;10.23;43.71;98329.59;4991882;28;20046;-76
2023/04/26 11:14:40;;;;;;;6.20;3.13;;;;;;;10.04;42.71;98330.78;4990565;28;20045;-75
2023/04/26 11:17:07;;;;;;;5.65;2.67;;;;;;;10.38;43.79;98327.22;4991900;28;20022;-76
2023/04/26 11:19:32;;;;;;;4.45;2.75;;;;;;;9.67;42.06;98324.88;4974490;28;20042;-75
2023/04/26 11:21:59;;;;;;;5.10;2.53;;;;;;;10.22;39.83;98318.00;4991559;28;20524;-75
2023/04/26 11:24:32;;;;;;;4.80;2.78;;;;;;;10.75;41.27;98316.88;4994237;28;20070;-76
2023/04/26 11:26:58;;;;;;;5.55;2.58;;;;;;;10.55;41.57;98303.84;4978030;28;20038;-75
2023/04/26 11:29:24;;;;;;;5.63;2.70;;;;;;;10.44;39.99;98296.63;4994174;28;20021;-75
2023/04/26 11:31:53;;;;;;;7.00;3.15;;;;;;;10.49;41.89;98296.75;5000302;28;20064;-76